sensor_id;sensor_type;location;lat;lon;timestamp;temperature;humidity
774;DHT22;370;48.810;9.150;2023-03-01T00:02:16;-1.90;8.90
774;DHT22;370;48.810;9.150;2023-03-01T00:04:43;-1.90;9.00
774;DHT22;370;48.810;9.150;2023-03-01T00:07:10;-1.90;8.90
774;DHT22;370;48.810;9.150;2023-03-01T00:09:36;-2.00;8.60
774;DHT22;370;48.810;9.150;2023-03-01T00:12:04;-2.00;9.70
774;DHT22;370;48.810;9.150;2023-03-01T00:14:31;-2.00;10.00
774;DHT22;370;48.810;9.150;2023-03-01T00:17:00;-2.00;10.40
774;DHT22;370;48.810;9.150;2023-03-01T00:19:27;-2.00;11.00
774;DHT22;370;48.810;9.150;2023-03-01T00:21:54;-2.00;10.50
774;DHT22;370;48.810;9.150;2023-03-01T00:24:21;-2.00;10.20
774;DHT22;370;48.810;9.150;2023-03-01T00:26:47;-2.00;10.10
774;DHT22;370;48.810;9.150;2023-03-01T00:29:15;-2.00;10.10
774;DHT22;370;48.810;9.150;2023-03-01T00:31:41;-2.10;9.90
774;DHT22;370;48.810;9.150;2023-03-01T00:34:10;-2.10;9.60
774;DHT22;370;48.810;9.150;2023-03-01T00:36:37;-2.10;9.70
774;DHT22;370;48.810;9.150;2023-03-01T00:39:07;-2.10;9.90
774;DHT22;370;48.810;9.150;2023-03-01T00:41:34;-2.10;10.00
774;DHT22;370;48.810;9.150;2023-03-01T00:44:00;-2.10;10.20
774;DHT22;370;48.810;9.150;2023-03-01T00:46:27;-2.10;10.30
774;DHT22;370;48.810;9.150;2023-03-01T00:48:55;-2.20;10.30
774;DHT22;370;48.810;9.150;2023-03-01T00:51:26;-2.20;10.40
774;DHT22;370;48.810;9.150;2023-03-01T00:53:54;-2.30;10.80
774;DHT22;370;48.810;9.150;2023-03-01T00:56:22;-2.20;11.70
774;DHT22;370;48.810;9.150;2023-03-01T00:58:49;-2.20;11.60
774;DHT22;370;48.810;9.150;2023-03-01T01:01:19;-2.20;11.80
774;DHT22;370;48.810;9.150;2023-03-01T01:03:47;-2.30;13.10
774;DHT22;370;48.810;9.150;2023-03-01T01:06:16;-2.30;13.20
774;DHT22;370;48.810;9.150;2023-03-01T01:08:44;-2.30;13.10
774;DHT22;370;48.810;9.150;2023-03-01T01:11:11;-2.30;12.90
774;DHT22;370;48.810;9.150;2023-03-01T01:13:39;-2.30;13.50
774;DHT22;370;48.810;9.150;2023-03-01T01:16:06;-2.30;13.30
774;DHT22;370;48.810;9.150;2023-03-01T01:18:33;-2.30;12.60
774;DHT22;370;48.810;9.150;2023-03-01T01:21:04;-2.30;12.60
774;DHT22;370;48.810;9.150;2023-03-01T01:23:31;-2.30;13.00
774;DHT22;370;48.810;9.150;2023-03-01T01:26:03;-2.30;12.90
774;DHT22;370;48.810;9.150;2023-03-01T01:28:30;-2.40;13.20
774;DHT22;370;48.810;9.150;2023-03-01T01:30:57;-2.30;13.60
774;DHT22;370;48.810;9.150;2023-03-01T01:33:24;-2.30;13.00
774;DHT22;370;48.810;9.150;2023-03-01T01:35:51;-2.30;13.30
774;DHT22;370;48.810;9.150;2023-03-01T01:38:17;-2.30;13.30
774;DHT22;370;48.810;9.150;2023-03-01T01:40:44;-2.30;13.00
774;DHT22;370;48.810;9.150;2023-03-01T01:43:18;-2.30;13.20
774;DHT22;370;48.810;9.150;2023-03-01T01:45:45;-2.30;13.10
774;DHT22;370;48.810;9.150;2023-03-01T01:48:14;-2.30;13.20
774;DHT22;370;48.810;9.150;2023-03-01T01:50:42;-2.30;13.20
774;DHT22;370;48.810;9.150;2023-03-01T01:53:13;-2.30;12.90
774;DHT22;370;48.810;9.150;2023-03-01T01:55:46;-2.30;12.90
774;DHT22;370;48.810;9.150;2023-03-01T01:58:18;-2.40;12.50
774;DHT22;370;48.810;9.150;2023-03-01T02:00:45;-2.40;14.10
774;DHT22;370;48.810;9.150;2023-03-01T02:03:15;-2.30;14.10
774;DHT22;370;48.810;9.150;2023-03-01T02:05:47;-2.20;14.30
774;DHT22;370;48.810;9.150;2023-03-01T02:08:19;-2.10;13.80
774;DHT22;370;48.810;9.150;2023-03-01T02:10:47;-2.00;13.20
774;DHT22;370;48.810;9.150;2023-03-01T02:13:15;-1.90;12.60
774;DHT22;370;48.810;9.150;2023-03-01T02:15:42;-1.80;12.30
774;DHT22;370;48.810;9.150;2023-03-01T02:18:11;-1.70;12.60
774;DHT22;370;48.810;9.150;2023-03-01T02:20:47;-1.60;12.00
774;DHT22;370;48.810;9.150;2023-03-01T02:23:16;-1.50;10.80
774;DHT22;370;48.810;9.150;2023-03-01T02:25:48;-1.40;9.80
774;DHT22;370;48.810;9.150;2023-03-01T02:28:24;-1.40;9.30
774;DHT22;370;48.810;9.150;2023-03-01T02:30:51;-1.30;9.20
774;DHT22;370;48.810;9.150;2023-03-01T02:33:38;-1.20;8.70
774;DHT22;370;48.810;9.150;2023-03-01T02:36:08;-1.10;8.20
774;DHT22;370;48.810;9.150;2023-03-01T02:38:36;-1.00;7.50
774;DHT22;370;48.810;9.150;2023-03-01T02:41:06;-0.90;7.60
774;DHT22;370;48.810;9.150;2023-03-01T02:43:35;-0.80;6.80
774;DHT22;370;48.810;9.150;2023-03-01T02:46:04;-0.80;6.50
774;DHT22;370;48.810;9.150;2023-03-01T02:48:40;-0.70;6.50
774;DHT22;370;48.810;9.150;2023-03-01T02:51:12;-0.70;6.20
774;DHT22;370;48.810;9.150;2023-03-01T02:53:53;-0.60;5.60
774;DHT22;370;48.810;9.150;2023-03-01T02:56:21;-0.60;5.40
774;DHT22;370;48.810;9.150;2023-03-01T02:58:49;-0.50;5.50
774;DHT22;370;48.810;9.150;2023-03-01T03:01:16;-0.40;4.90
774;DHT22;370;48.810;9.150;2023-03-01T03:03:43;-0.40;4.50
774;DHT22;370;48.810;9.150;2023-03-01T03:06:10;-0.40;4.40
774;DHT22;370;48.810;9.150;2023-03-01T03:08:37;-0.40;3.80
774;DHT22;370;48.810;9.150;2023-03-01T03:11:04;-0.40;3.80
774;DHT22;370;48.810;9.150;2023-03-01T03:13:30;-0.40;3.80
774;DHT22;370;48.810;9.150;2023-03-01T03:15:59;-0.30;3.60
774;DHT22;370;48.810;9.150;2023-03-01T03:18:25;-0.30;4.10
774;DHT22;370;48.810;9.150;2023-03-01T03:20:53;-0.20;3.40
774;DHT22;370;48.810;9.150;2023-03-01T03:23:21;-0.20;3.70
774;DHT22;370;48.810;9.150;2023-03-01T03:25:48;-0.30;3.60
774;DHT22;370;48.810;9.150;2023-03-01T03:28:16;-0.30;3.90
774;DHT22;370;48.810;9.150;2023-03-01T03:30:42;-0.20;3.60
774;DHT22;370;48.810;9.150;2023-03-01T03:33:12;-0.20;3.20
774;DHT22;370;48.810;9.150;2023-03-01T03:35:41;-0.20;3.30
774;DHT22;370;48.810;9.150;2023-03-01T03:38:11;-0.20;3.10
774;DHT22;370;48.810;9.150;2023-03-01T03:40:43;-0.10;3.20
774;DHT22;370;48.810;9.150;2023-03-01T03:43:13;-0.20;3.20
774;DHT22;370;48.810;9.150;2023-03-01T03:45:40;-0.20;2.60
774;DHT22;370;48.810;9.150;2023-03-01T03:48:08;-0.20;3.00
774;DHT22;370;48.810;9.150;2023-03-01T03:50:38;-0.10;3.30
774;DHT22;370;48.810;9.150;2023-03-01T03:53:07;-0.10;3.30
774;DHT22;370;48.810;9.150;2023-03-01T03:55:34;-0.10;3.20
774;DHT22;370;48.810;9.150;2023-03-01T03:58:05;0.10;2.50
774;DHT22;370;48.810;9.150;2023-03-01T04:00:33;0.10;2.40
774;DHT22;370;48.810;9.150;2023-03-01T04:03:00;0.20;1.30
774;DHT22;370;48.810;9.150;2023-03-01T04:05:27;0.20;1.40
774;DHT22;370;48.810;9.150;2023-03-01T04:07:56;0.30;1.00
774;DHT22;370;48.810;9.150;2023-03-01T04:10:34;0.30;1.00
774;DHT22;370;48.810;9.150;2023-03-01T04:13:02;0.40;1.00
774;DHT22;370;48.810;9.150;2023-03-01T04:15:30;0.30;1.00
774;DHT22;370;48.810;9.150;2023-03-01T04:17:58;0.40;1.00
774;DHT22;370;48.810;9.150;2023-03-01T04:20:27;0.30;1.00
774;DHT22;370;48.810;9.150;2023-03-01T04:22:59;0.40;1.00
774;DHT22;370;48.810;9.150;2023-03-01T04:25:36;0.40;1.00
774;DHT22;370;48.810;9.150;2023-03-01T04:28:03;0.50;1.00
774;DHT22;370;48.810;9.150;2023-03-01T04:30:30;0.50;1.00
774;DHT22;370;48.810;9.150;2023-03-01T04:33:01;0.60;1.00
774;DHT22;370;48.810;9.150;2023-03-01T04:35:28;0.60;1.00
774;DHT22;370;48.810;9.150;2023-03-01T04:37:54;0.60;1.00
774;DHT22;370;48.810;9.150;2023-03-01T04:40:23;0.60;1.00
774;DHT22;370;48.810;9.150;2023-03-01T04:42:50;0.70;1.00
774;DHT22;370;48.810;9.150;2023-03-01T04:45:17;0.80;1.00
774;DHT22;370;48.810;9.150;2023-03-01T04:47:45;0.80;1.00
774;DHT22;370;48.810;9.150;2023-03-01T04:50:14;0.80;1.00
774;DHT22;370;48.810;9.150;2023-03-01T04:52:41;0.90;1.00
774;DHT22;370;48.810;9.150;2023-03-01T04:55:09;0.90;1.00
774;DHT22;370;48.810;9.150;2023-03-01T04:57:37;1.00;1.00
774;DHT22;370;48.810;9.150;2023-03-01T05:00:06;1.00;1.00
774;DHT22;370;48.810;9.150;2023-03-01T05:02:46;1.00;1.00
774;DHT22;370;48.810;9.150;2023-03-01T05:05:13;1.00;1.00
774;DHT22;370;48.810;9.150;2023-03-01T05:07:40;1.00;1.00
774;DHT22;370;48.810;9.150;2023-03-01T05:10:08;1.10;1.00
774;DHT22;370;48.810;9.150;2023-03-01T05:12:36;1.20;1.00
774;DHT22;370;48.810;9.150;2023-03-01T05:15:04;1.20;1.00
774;DHT22;370;48.810;9.150;2023-03-01T05:17:32;1.20;1.00
774;DHT22;370;48.810;9.150;2023-03-01T05:19:59;1.20;1.00
774;DHT22;370;48.810;9.150;2023-03-01T05:22:26;1.20;1.00
774;DHT22;370;48.810;9.150;2023-03-01T05:24:53;1.20;1.00
774;DHT22;370;48.810;9.150;2023-03-01T05:27:20;1.30;1.00
774;DHT22;370;48.810;9.150;2023-03-01T05:29:49;1.40;1.00
774;DHT22;370;48.810;9.150;2023-03-01T05:32:15;1.40;1.00
774;DHT22;370;48.810;9.150;2023-03-01T05:34:42;1.50;1.00
774;DHT22;370;48.810;9.150;2023-03-01T05:37:11;1.40;1.00
774;DHT22;370;48.810;9.150;2023-03-01T05:39:38;1.40;1.00
774;DHT22;370;48.810;9.150;2023-03-01T05:42:11;1.50;1.00
774;DHT22;370;48.810;9.150;2023-03-01T05:44:38;1.50;1.00
774;DHT22;370;48.810;9.150;2023-03-01T05:47:06;1.50;1.00
774;DHT22;370;48.810;9.150;2023-03-01T05:49:32;1.60;1.00
774;DHT22;370;48.810;9.150;2023-03-01T05:52:00;1.50;1.00
774;DHT22;370;48.810;9.150;2023-03-01T05:54:26;1.50;1.00
774;DHT22;370;48.810;9.150;2023-03-01T05:56:53;1.50;1.00
774;DHT22;370;48.810;9.150;2023-03-01T05:59:20;1.60;1.00
774;DHT22;370;48.810;9.150;2023-03-01T06:01:46;1.60;1.00
774;DHT22;370;48.810;9.150;2023-03-01T06:04:14;1.60;1.00
774;DHT22;370;48.810;9.150;2023-03-01T06:06:41;1.70;1.00
774;DHT22;370;48.810;9.150;2023-03-01T06:09:08;1.60;1.00
774;DHT22;370;48.810;9.150;2023-03-01T06:11:35;1.60;1.00
774;DHT22;370;48.810;9.150;2023-03-01T06:14:02;1.60;1.00
774;DHT22;370;48.810;9.150;2023-03-01T06:16:29;1.70;1.00
774;DHT22;370;48.810;9.150;2023-03-01T06:18:56;1.60;1.00
774;DHT22;370;48.810;9.150;2023-03-01T06:21:24;1.70;1.00
774;DHT22;370;48.810;9.150;2023-03-01T06:23:50;1.70;1.00
774;DHT22;370;48.810;9.150;2023-03-01T06:26:17;1.60;1.00
774;DHT22;370;48.810;9.150;2023-03-01T06:28:44;1.70;1.00
774;DHT22;370;48.810;9.150;2023-03-01T06:31:13;1.70;1.00
774;DHT22;370;48.810;9.150;2023-03-01T06:33:39;1.80;1.00
774;DHT22;370;48.810;9.150;2023-03-01T06:36:07;1.80;1.00
774;DHT22;370;48.810;9.150;2023-03-01T06:38:36;1.80;1.00
774;DHT22;370;48.810;9.150;2023-03-01T06:41:03;1.80;1.00
774;DHT22;370;48.810;9.150;2023-03-01T06:43:30;1.80;1.00
774;DHT22;370;48.810;9.150;2023-03-01T06:45:57;1.80;1.00
774;DHT22;370;48.810;9.150;2023-03-01T06:48:24;1.70;1.00
774;DHT22;370;48.810;9.150;2023-03-01T06:50:50;1.70;1.00
774;DHT22;370;48.810;9.150;2023-03-01T06:53:17;1.80;1.00
774;DHT22;370;48.810;9.150;2023-03-01T06:55:45;1.90;1.00
774;DHT22;370;48.810;9.150;2023-03-01T06:58:12;2.00;1.00
774;DHT22;370;48.810;9.150;2023-03-01T07:00:38;2.10;1.00
774;DHT22;370;48.810;9.150;2023-03-01T07:03:06;2.20;1.00
774;DHT22;370;48.810;9.150;2023-03-01T07:05:33;2.20;1.00
774;DHT22;370;48.810;9.150;2023-03-01T07:08:00;2.30;1.00
774;DHT22;370;48.810;9.150;2023-03-01T07:10:26;2.40;1.00
774;DHT22;370;48.810;9.150;2023-03-01T07:12:56;2.40;1.00
774;DHT22;370;48.810;9.150;2023-03-01T07:15:23;2.50;1.00
774;DHT22;370;48.810;9.150;2023-03-01T07:17:50;2.50;1.00
774;DHT22;370;48.810;9.150;2023-03-01T07:20:17;2.90;1.00
774;DHT22;370;48.810;9.150;2023-03-01T07:22:44;3.40;1.00
774;DHT22;370;48.810;9.150;2023-03-01T07:25:11;3.90;1.00
774;DHT22;370;48.810;9.150;2023-03-01T07:27:37;4.50;1.00
774;DHT22;370;48.810;9.150;2023-03-01T07:30:07;5.40;1.00
774;DHT22;370;48.810;9.150;2023-03-01T07:32:34;6.40;1.00
774;DHT22;370;48.810;9.150;2023-03-01T07:35:00;7.30;1.00
774;DHT22;370;48.810;9.150;2023-03-01T07:37:27;8.00;1.00
774;DHT22;370;48.810;9.150;2023-03-01T07:39:54;8.00;1.00
774;DHT22;370;48.810;9.150;2023-03-01T07:42:20;8.00;1.00
774;DHT22;370;48.810;9.150;2023-03-01T07:44:47;8.80;1.00
774;DHT22;370;48.810;9.150;2023-03-01T07:47:15;9.50;1.00
774;DHT22;370;48.810;9.150;2023-03-01T07:49:42;10.00;1.00
774;DHT22;370;48.810;9.150;2023-03-01T07:52:10;10.10;1.00
774;DHT22;370;48.810;9.150;2023-03-01T07:54:37;10.60;1.00
774;DHT22;370;48.810;9.150;2023-03-01T07:57:04;10.90;1.00
774;DHT22;370;48.810;9.150;2023-03-01T07:59:30;10.50;1.00
774;DHT22;370;48.810;9.150;2023-03-01T08:01:58;10.20;1.00
774;DHT22;370;48.810;9.150;2023-03-01T08:04:26;10.40;1.00
774;DHT22;370;48.810;9.150;2023-03-01T08:06:53;11.00;1.00
774;DHT22;370;48.810;9.150;2023-03-01T08:09:20;11.20;1.00
774;DHT22;370;48.810;9.150;2023-03-01T08:11:46;11.70;1.00
774;DHT22;370;48.810;9.150;2023-03-01T08:14:13;12.30;1.00
774;DHT22;370;48.810;9.150;2023-03-01T08:16:40;12.50;1.00
774;DHT22;370;48.810;9.150;2023-03-01T08:19:09;12.90;1.00
774;DHT22;370;48.810;9.150;2023-03-01T08:21:37;13.40;1.00
774;DHT22;370;48.810;9.150;2023-03-01T08:24:05;14.10;1.00
774;DHT22;370;48.810;9.150;2023-03-01T08:26:32;14.40;1.00
774;DHT22;370;48.810;9.150;2023-03-01T08:29:00;14.70;1.00
774;DHT22;370;48.810;9.150;2023-03-01T08:31:29;15.30;1.00
774;DHT22;370;48.810;9.150;2023-03-01T08:33:58;16.20;1.00
774;DHT22;370;48.810;9.150;2023-03-01T08:36:26;16.70;1.00
774;DHT22;370;48.810;9.150;2023-03-01T08:38:55;17.60;1.00
774;DHT22;370;48.810;9.150;2023-03-01T08:41:22;18.20;1.00
774;DHT22;370;48.810;9.150;2023-03-01T08:43:49;18.80;1.00
774;DHT22;370;48.810;9.150;2023-03-01T08:46:16;19.30;1.00
774;DHT22;370;48.810;9.150;2023-03-01T08:48:43;19.80;1.00
774;DHT22;370;48.810;9.150;2023-03-01T08:51:11;19.60;1.00
774;DHT22;370;48.810;9.150;2023-03-01T08:53:38;20.20;1.00
774;DHT22;370;48.810;9.150;2023-03-01T08:56:07;20.60;1.00
774;DHT22;370;48.810;9.150;2023-03-01T08:58:34;20.80;1.00
774;DHT22;370;48.810;9.150;2023-03-01T09:01:01;21.30;1.00
774;DHT22;370;48.810;9.150;2023-03-01T09:03:32;21.60;1.00
774;DHT22;370;48.810;9.150;2023-03-01T09:06:00;21.90;1.00
774;DHT22;370;48.810;9.150;2023-03-01T09:08:27;22.30;1.00
774;DHT22;370;48.810;9.150;2023-03-01T09:10:54;22.90;1.00
774;DHT22;370;48.810;9.150;2023-03-01T09:13:22;23.20;1.00
774;DHT22;370;48.810;9.150;2023-03-01T09:15:50;23.50;1.00
774;DHT22;370;48.810;9.150;2023-03-01T09:18:17;23.70;1.00
774;DHT22;370;48.810;9.150;2023-03-01T09:20:44;24.40;1.00
774;DHT22;370;48.810;9.150;2023-03-01T09:23:10;24.30;1.00
774;DHT22;370;48.810;9.150;2023-03-01T09:25:37;24.60;1.00
774;DHT22;370;48.810;9.150;2023-03-01T09:28:04;25.10;1.00
774;DHT22;370;48.810;9.150;2023-03-01T09:30:32;24.60;1.00
774;DHT22;370;48.810;9.150;2023-03-01T09:32:59;25.00;1.00
774;DHT22;370;48.810;9.150;2023-03-01T09:35:25;25.30;1.00
774;DHT22;370;48.810;9.150;2023-03-01T09:37:53;25.50;1.00
774;DHT22;370;48.810;9.150;2023-03-01T09:40:21;25.70;1.00
774;DHT22;370;48.810;9.150;2023-03-01T09:42:53;26.60;1.00
774;DHT22;370;48.810;9.150;2023-03-01T09:45:28;27.10;1.00
774;DHT22;370;48.810;9.150;2023-03-01T09:47:58;27.80;1.00
774;DHT22;370;48.810;9.150;2023-03-01T09:50:30;28.20;1.00
774;DHT22;370;48.810;9.150;2023-03-01T09:53:01;28.30;1.00
774;DHT22;370;48.810;9.150;2023-03-01T09:55:33;28.70;1.00
774;DHT22;370;48.810;9.150;2023-03-01T09:58:29;29.10;1.00
774;DHT22;370;48.810;9.150;2023-03-01T10:01:00;28.70;1.00
774;DHT22;370;48.810;9.150;2023-03-01T10:03:36;28.60;1.00
774;DHT22;370;48.810;9.150;2023-03-01T10:06:08;28.60;1.00
774;DHT22;370;48.810;9.150;2023-03-01T10:08:41;28.10;1.00
774;DHT22;370;48.810;9.150;2023-03-01T10:11:19;28.70;1.00
774;DHT22;370;48.810;9.150;2023-03-01T10:13:51;30.00;1.00
774;DHT22;370;48.810;9.150;2023-03-01T10:16:24;31.20;1.00
774;DHT22;370;48.810;9.150;2023-03-01T10:18:58;31.90;1.00
774;DHT22;370;48.810;9.150;2023-03-01T10:21:27;31.40;1.00
774;DHT22;370;48.810;9.150;2023-03-01T10:24:10;32.20;1.00
774;DHT22;370;48.810;9.150;2023-03-01T10:26:44;32.20;1.00
774;DHT22;370;48.810;9.150;2023-03-01T10:29:13;31.90;1.00
774;DHT22;370;48.810;9.150;2023-03-01T10:31:43;31.10;1.00
774;DHT22;370;48.810;9.150;2023-03-01T10:34:14;31.00;1.00
774;DHT22;370;48.810;9.150;2023-03-01T10:36:43;31.90;1.00
774;DHT22;370;48.810;9.150;2023-03-01T10:39:13;31.90;1.00
774;DHT22;370;48.810;9.150;2023-03-01T10:41:56;31.90;1.00
774;DHT22;370;48.810;9.150;2023-03-01T10:44:42;32.40;1.00
774;DHT22;370;48.810;9.150;2023-03-01T10:47:16;31.90;1.00
774;DHT22;370;48.810;9.150;2023-03-01T10:49:58;33.40;1.00
774;DHT22;370;48.810;9.150;2023-03-01T10:52:29;34.30;1.00
774;DHT22;370;48.810;9.150;2023-03-01T10:54:58;34.20;1.00
774;DHT22;370;48.810;9.150;2023-03-01T10:57:34;34.10;1.00
774;DHT22;370;48.810;9.150;2023-03-01T11:00:19;33.90;1.00
774;DHT22;370;48.810;9.150;2023-03-01T11:02:49;33.40;1.00
774;DHT22;370;48.810;9.150;2023-03-01T11:05:20;33.20;1.00
774;DHT22;370;48.810;9.150;2023-03-01T11:07:50;31.80;1.00
774;DHT22;370;48.810;9.150;2023-03-01T11:10:23;31.70;1.00
774;DHT22;370;48.810;9.150;2023-03-01T11:12:51;33.00;1.00
774;DHT22;370;48.810;9.150;2023-03-01T11:15:27;33.10;1.00
774;DHT22;370;48.810;9.150;2023-03-01T11:17:54;33.70;1.00
774;DHT22;370;48.810;9.150;2023-03-01T11:20:28;34.10;1.00
774;DHT22;370;48.810;9.150;2023-03-01T11:22:59;33.70;1.00
774;DHT22;370;48.810;9.150;2023-03-01T11:25:27;33.20;1.00
774;DHT22;370;48.810;9.150;2023-03-01T11:27:56;32.40;1.00
774;DHT22;370;48.810;9.150;2023-03-01T11:30:28;31.00;1.00
774;DHT22;370;48.810;9.150;2023-03-01T11:33:11;29.20;1.00
774;DHT22;370;48.810;9.150;2023-03-01T11:35:45;30.00;1.00
774;DHT22;370;48.810;9.150;2023-03-01T11:38:20;29.70;1.00
774;DHT22;370;48.810;9.150;2023-03-01T11:40:51;30.40;1.00
774;DHT22;370;48.810;9.150;2023-03-01T11:43:23;30.60;1.00
774;DHT22;370;48.810;9.150;2023-03-01T11:49:16;31.00;1.00
774;DHT22;370;48.810;9.150;2023-03-01T11:51:52;30.40;1.00
774;DHT22;370;48.810;9.150;2023-03-01T11:54:30;29.90;1.00
774;DHT22;370;48.810;9.150;2023-03-01T11:57:03;30.60;1.00
774;DHT22;370;48.810;9.150;2023-03-01T11:59:49;31.70;1.00
774;DHT22;370;48.810;9.150;2023-03-01T12:02:52;32.80;1.00
774;DHT22;370;48.810;9.150;2023-03-01T12:08:52;32.80;1.00
774;DHT22;370;48.810;9.150;2023-03-01T12:11:33;32.40;1.00
774;DHT22;370;48.810;9.150;2023-03-01T12:14:21;31.50;1.00
774;DHT22;370;48.810;9.150;2023-03-01T12:17:07;31.30;1.00
774;DHT22;370;48.810;9.150;2023-03-01T12:19:58;31.30;1.00
774;DHT22;370;48.810;9.150;2023-03-01T12:22:34;32.40;1.00
774;DHT22;370;48.810;9.150;2023-03-01T12:25:30;32.50;1.00
774;DHT22;370;48.810;9.150;2023-03-01T12:28:19;33.00;1.00
774;DHT22;370;48.810;9.150;2023-03-01T12:31:05;32.50;1.00
774;DHT22;370;48.810;9.150;2023-03-01T12:33:43;31.70;1.00
774;DHT22;370;48.810;9.150;2023-03-01T12:36:39;31.40;1.00
774;DHT22;370;48.810;9.150;2023-03-01T12:39:32;31.80;1.00
774;DHT22;370;48.810;9.150;2023-03-01T12:42:12;32.70;1.00
774;DHT22;370;48.810;9.150;2023-03-01T12:44:59;32.80;1.00
774;DHT22;370;48.810;9.150;2023-03-01T12:47:44;31.30;1.00
774;DHT22;370;48.810;9.150;2023-03-01T12:53:41;32.00;1.00
774;DHT22;370;48.810;9.150;2023-03-01T12:56:13;30.70;1.00
774;DHT22;370;48.810;9.150;2023-03-01T12:58:50;29.70;1.00
774;DHT22;370;48.810;9.150;2023-03-01T13:01:25;29.50;1.00
774;DHT22;370;48.810;9.150;2023-03-01T13:04:15;29.70;1.00
774;DHT22;370;48.810;9.150;2023-03-01T13:06:50;26.90;1.00
774;DHT22;370;48.810;9.150;2023-03-01T13:09:26;24.70;1.00
774;DHT22;370;48.810;9.150;2023-03-01T13:11:56;22.00;1.00
774;DHT22;370;48.810;9.150;2023-03-01T13:14:45;20.10;1.00
774;DHT22;370;48.810;9.150;2023-03-01T13:17:33;18.10;1.00
774;DHT22;370;48.810;9.150;2023-03-01T13:20:13;16.60;1.00
774;DHT22;370;48.810;9.150;2023-03-01T13:22:40;15.60;1.00
774;DHT22;370;48.810;9.150;2023-03-01T13:25:14;14.50;1.00
774;DHT22;370;48.810;9.150;2023-03-01T13:27:42;13.60;1.00
774;DHT22;370;48.810;9.150;2023-03-01T13:33:42;12.20;1.00
774;DHT22;370;48.810;9.150;2023-03-01T13:36:10;12.00;1.00
774;DHT22;370;48.810;9.150;2023-03-01T13:38:47;11.60;1.00
774;DHT22;370;48.810;9.150;2023-03-01T13:41:15;11.30;1.00
774;DHT22;370;48.810;9.150;2023-03-01T13:43:43;11.10;1.00
774;DHT22;370;48.810;9.150;2023-03-01T13:46:16;10.70;1.00
774;DHT22;370;48.810;9.150;2023-03-01T13:48:49;10.60;1.00
774;DHT22;370;48.810;9.150;2023-03-01T13:51:22;10.60;1.00
774;DHT22;370;48.810;9.150;2023-03-01T13:53:50;10.40;1.00
774;DHT22;370;48.810;9.150;2023-03-01T13:56:21;10.30;1.00
774;DHT22;370;48.810;9.150;2023-03-01T13:58:53;10.20;1.00
774;DHT22;370;48.810;9.150;2023-03-01T14:01:27;10.20;1.00
774;DHT22;370;48.810;9.150;2023-03-01T14:03:55;10.10;1.00
774;DHT22;370;48.810;9.150;2023-03-01T14:06:24;10.00;1.00
774;DHT22;370;48.810;9.150;2023-03-01T14:12:21;9.80;1.00
774;DHT22;370;48.810;9.150;2023-03-01T14:15:18;9.80;1.00
774;DHT22;370;48.810;9.150;2023-03-01T14:18:04;9.70;1.00
774;DHT22;370;48.810;9.150;2023-03-01T14:20:41;9.70;1.00
774;DHT22;370;48.810;9.150;2023-03-01T14:23:11;9.50;1.00
774;DHT22;370;48.810;9.150;2023-03-01T14:25:47;9.50;1.00
774;DHT22;370;48.810;9.150;2023-03-01T14:28:16;9.50;1.00
774;DHT22;370;48.810;9.150;2023-03-01T14:30:45;9.40;1.00
774;DHT22;370;48.810;9.150;2023-03-01T14:33:20;9.30;1.00
774;DHT22;370;48.810;9.150;2023-03-01T14:35:59;9.30;1.00
774;DHT22;370;48.810;9.150;2023-03-01T14:38:34;9.30;1.00
774;DHT22;370;48.810;9.150;2023-03-01T14:41:03;9.40;1.00
774;DHT22;370;48.810;9.150;2023-03-01T14:43:31;9.40;1.00
774;DHT22;370;48.810;9.150;2023-03-01T14:45:59;9.20;1.00
774;DHT22;370;48.810;9.150;2023-03-01T14:48:27;9.10;1.00
774;DHT22;370;48.810;9.150;2023-03-01T14:50:55;9.10;1.00
774;DHT22;370;48.810;9.150;2023-03-01T14:53:26;9.20;1.00
774;DHT22;370;48.810;9.150;2023-03-01T14:55:55;9.10;1.00
774;DHT22;370;48.810;9.150;2023-03-01T14:58:25;9.10;1.00
774;DHT22;370;48.810;9.150;2023-03-01T15:00:56;9.10;1.00
774;DHT22;370;48.810;9.150;2023-03-01T15:03:27;9.00;1.00
774;DHT22;370;48.810;9.150;2023-03-01T15:05:56;8.90;1.00
774;DHT22;370;48.810;9.150;2023-03-01T15:08:25;8.80;1.00
774;DHT22;370;48.810;9.150;2023-03-01T15:11:01;8.90;1.00
774;DHT22;370;48.810;9.150;2023-03-01T15:13:31;8.80;1.00
774;DHT22;370;48.810;9.150;2023-03-01T15:16:06;8.70;1.00
774;DHT22;370;48.810;9.150;2023-03-01T15:18:34;8.60;1.00
774;DHT22;370;48.810;9.150;2023-03-01T15:21:09;8.50;1.00
774;DHT22;370;48.810;9.150;2023-03-01T15:23:38;8.50;1.00
774;DHT22;370;48.810;9.150;2023-03-01T15:26:06;8.50;1.00
774;DHT22;370;48.810;9.150;2023-03-01T15:28:37;8.50;1.00
774;DHT22;370;48.810;9.150;2023-03-01T15:31:19;8.40;1.00
774;DHT22;370;48.810;9.150;2023-03-01T15:33:47;8.30;1.00
774;DHT22;370;48.810;9.150;2023-03-01T15:36:37;8.30;1.00
774;DHT22;370;48.810;9.150;2023-03-01T15:39:29;8.20;1.00
774;DHT22;370;48.810;9.150;2023-03-01T15:41:57;8.20;1.00
774;DHT22;370;48.810;9.150;2023-03-01T15:44:27;8.20;1.00
774;DHT22;370;48.810;9.150;2023-03-01T15:46:54;8.20;1.00
774;DHT22;370;48.810;9.150;2023-03-01T15:49:27;8.20;1.00
774;DHT22;370;48.810;9.150;2023-03-01T15:51:56;8.10;1.00
774;DHT22;370;48.810;9.150;2023-03-01T15:54:25;8.00;1.00
774;DHT22;370;48.810;9.150;2023-03-01T15:56:54;8.00;1.00
774;DHT22;370;48.810;9.150;2023-03-01T15:59:21;8.00;1.00
774;DHT22;370;48.810;9.150;2023-03-01T16:01:48;8.00;1.00
774;DHT22;370;48.810;9.150;2023-03-01T16:04:17;7.90;1.00
774;DHT22;370;48.810;9.150;2023-03-01T16:06:48;7.90;1.00
774;DHT22;370;48.810;9.150;2023-03-01T16:09:20;7.90;1.00
774;DHT22;370;48.810;9.150;2023-03-01T16:11:46;7.80;1.00
774;DHT22;370;48.810;9.150;2023-03-01T16:17:36;7.70;1.00
774;DHT22;370;48.810;9.150;2023-03-01T16:20:03;7.70;1.00
774;DHT22;370;48.810;9.150;2023-03-01T16:22:30;7.60;1.00
774;DHT22;370;48.810;9.150;2023-03-01T16:24:57;7.50;1.00
774;DHT22;370;48.810;9.150;2023-03-01T16:27:24;7.40;1.00
774;DHT22;370;48.810;9.150;2023-03-01T16:29:50;7.30;1.00
774;DHT22;370;48.810;9.150;2023-03-01T16:32:17;7.30;1.00
774;DHT22;370;48.810;9.150;2023-03-01T16:34:45;7.30;1.00
774;DHT22;370;48.810;9.150;2023-03-01T16:37:14;7.20;1.00
774;DHT22;370;48.810;9.150;2023-03-01T16:39:41;7.10;1.00
774;DHT22;370;48.810;9.150;2023-03-01T16:42:08;7.00;1.00
774;DHT22;370;48.810;9.150;2023-03-01T16:44:35;6.90;1.00
774;DHT22;370;48.810;9.150;2023-03-01T16:47:01;6.90;1.00
774;DHT22;370;48.810;9.150;2023-03-01T16:49:28;6.90;1.00
774;DHT22;370;48.810;9.150;2023-03-01T16:51:56;6.70;1.00
774;DHT22;370;48.810;9.150;2023-03-01T16:54:23;6.70;1.00
774;DHT22;370;48.810;9.150;2023-03-01T16:56:50;6.60;1.00
774;DHT22;370;48.810;9.150;2023-03-01T16:59:17;6.50;1.00
774;DHT22;370;48.810;9.150;2023-03-01T17:01:44;6.40;1.00
774;DHT22;370;48.810;9.150;2023-03-01T17:04:12;6.40;1.00
774;DHT22;370;48.810;9.150;2023-03-01T17:06:39;6.30;1.00
774;DHT22;370;48.810;9.150;2023-03-01T17:09:07;6.20;1.00
774;DHT22;370;48.810;9.150;2023-03-01T17:11:35;6.20;1.00
774;DHT22;370;48.810;9.150;2023-03-01T17:14:02;6.10;1.00
774;DHT22;370;48.810;9.150;2023-03-01T17:16:29;6.00;1.00
774;DHT22;370;48.810;9.150;2023-03-01T17:18:56;5.90;1.00
774;DHT22;370;48.810;9.150;2023-03-01T17:21:22;5.90;1.00
774;DHT22;370;48.810;9.150;2023-03-01T17:23:54;5.80;1.00
774;DHT22;370;48.810;9.150;2023-03-01T17:26:23;5.70;1.00
774;DHT22;370;48.810;9.150;2023-03-01T17:28:49;5.60;1.00
774;DHT22;370;48.810;9.150;2023-03-01T17:31:18;5.60;1.00
774;DHT22;370;48.810;9.150;2023-03-01T17:33:44;5.50;1.00
774;DHT22;370;48.810;9.150;2023-03-01T17:36:11;5.40;1.00
774;DHT22;370;48.810;9.150;2023-03-01T17:38:38;5.40;1.00